sensor_id;sensor_type;location;lat;lon;timestamp;pressure;altitude;pressure_sealevel;temperature;humidity
64354;BME280;50681;53.334;-6.536;2023-04-28T00:01:47;100086.44;;;15.06;100.00
64354;BME280;50681;53.334;-6.536;2023-04-28T00:04:13;100082.16;;;14.96;100.00
64354;BME280;50681;53.334;-6.536;2023-04-28T00:06:38;100079.25;;;14.80;100.00
64354;BME280;50681;53.334;-6.536;2023-04-28T00:09:04;100074.28;;;14.82;100.00
64354;BME280;50681;53.334;-6.536;2023-04-28T00:11:32;100087.34;;;14.89;100.00
64354;BME280;50681;53.334;-6.536;2023-04-28T00:13:57;100101.28;;;14.88;100.00
64354;BME280;50681;53.334;-6.536;2023-04-28T00:16:23;100087.75;;;15.00;100.00
64354;BME280;50681;53.334;-6.536;2023-04-28T00:18:48;100107.88;;;14.78;100.00
64354;BME280;50681;53.334;-6.536;2023-04-28T00:21:13;100080.63;;;14.57;100.00
64354;BME280;50681;53.334;-6.536;2023-04-28T00:23:39;100071.84;;;14.90;100.00
64354;BME280;50681;53.334;-6.536;2023-04-28T00:26:04;100089.34;;;15.01;100.00
64354;BME280;50681;53.334;-6.536;2023-04-28T00:28:30;100098.25;;;15.10;100.00
64354;BME280;50681;53.334;-6.536;2023-04-28T00:30:55;100099.09;;;15.02;100.00
64354;BME280;50681;53.334;-6.536;2023-04-28T00:33:21;100092.25;;;14.96;100.00
64354;BME280;50681;53.334;-6.536;2023-04-28T00:35:46;100079.78;;;14.95;100.00
64354;BME280;50681;53.334;-6.536;2023-04-28T00:38:11;100092.91;;;14.93;100.00
64354;BME280;50681;53.334;-6.536;2023-04-28T00:40:38;100090.13;;;15.02;100.00
64354;BME280;50681;53.334;-6.536;2023-04-28T00:43:03;100097.19;;;15.24;100.00
64354;BME280;50681;53.334;-6.536;2023-04-28T00:45:30;100090.13;;;14.80;100.00
64354;BME280;50681;53.334;-6.536;2023-04-28T00:47:56;100097.50;;;15.01;100.00
64354;BME280;50681;53.334;-6.536;2023-04-28T00:50:22;100088.75;;;15.17;100.00
64354;BME280;50681;53.334;-6.536;2023-04-28T00:52:49;100090.81;;;15.20;100.00
64354;BME280;50681;53.334;-6.536;2023-04-28T00:55:15;100091.88;;;15.06;100.00
64354;BME280;50681;53.334;-6.536;2023-04-28T00:57:41;100084.09;;;14.96;100.00
64354;BME280;50681;53.334;-6.536;2023-04-28T01:00:08;100078.81;;;14.69;100.00
64354;BME280;50681;53.334;-6.536;2023-04-28T01:02:34;100101.94;;;15.06;100.00
64354;BME280;50681;53.334;-6.536;2023-04-28T01:05:00;100098.78;;;15.25;100.00
64354;BME280;50681;53.334;-6.536;2023-04-28T01:07:26;100092.91;;;14.93;100.00
64354;BME280;50681;53.334;-6.536;2023-04-28T01:09:52;100089.75;;;14.91;100.00
64354;BME280;50681;53.334;-6.536;2023-04-28T01:12:18;100087.69;;;14.88;100.00
64354;BME280;50681;53.334;-6.536;2023-04-28T01:14:43;100107.25;;;15.02;100.00
64354;BME280;50681;53.334;-6.536;2023-04-28T01:17:09;100110.47;;;14.74;100.00
64354;BME280;50681;53.334;-6.536;2023-04-28T01:19:35;100119.72;;;14.73;100.00
64354;BME280;50681;53.334;-6.536;2023-04-28T01:22:01;100112.88;;;14.97;100.00
64354;BME280;50681;53.334;-6.536;2023-04-28T01:24:26;100121.34;;;14.95;100.00
64354;BME280;50681;53.334;-6.536;2023-04-28T01:26:51;100122.53;;;15.16;100.00
64354;BME280;50681;53.334;-6.536;2023-04-28T01:29:17;100110.34;;;14.92;100.00
64354;BME280;50681;53.334;-6.536;2023-04-28T01:31:42;100124.59;;;14.89;100.00
64354;BME280;50681;53.334;-6.536;2023-04-28T01:34:14;100124.13;;;14.87;100.00
64354;BME280;50681;53.334;-6.536;2023-04-28T01:36:40;100140.69;;;14.64;100.00
64354;BME280;50681;53.334;-6.536;2023-04-28T01:39:05;100127.25;;;14.97;100.00
64354;BME280;50681;53.334;-6.536;2023-04-28T01:41:31;100148.81;;;15.03;100.00
64354;BME280;50681;53.334;-6.536;2023-04-28T01:44:00;100152.47;;;15.07;100.00
64354;BME280;50681;53.334;-6.536;2023-04-28T01:46:25;100141.59;;;15.07;100.00
64354;BME280;50681;53.334;-6.536;2023-04-28T01:48:51;100144.53;;;14.63;100.00
64354;BME280;50681;53.334;-6.536;2023-04-28T01:51:16;100143.13;;;14.57;100.00
64354;BME280;50681;53.334;-6.536;2023-04-28T01:53:42;100135.63;;;14.45;100.00
64354;BME280;50681;53.334;-6.536;2023-04-28T01:56:07;100145.81;;;14.95;100.00
64354;BME280;50681;53.334;-6.536;2023-04-28T01:58:33;100159.09;;;14.97;100.00
64354;BME280;50681;53.334;-6.536;2023-04-28T02:00:58;100141.53;;;14.47;100.00
64354;BME280;50681;53.334;-6.536;2023-04-28T02:03:28;100163.25;;;15.24;100.00
64354;BME280;50681;53.334;-6.536;2023-04-28T02:05:53;100155.34;;;14.80;100.00
64354;BME280;50681;53.334;-6.536;2023-04-28T02:08:19;100148.16;;;14.76;100.00
64354;BME280;50681;53.334;-6.536;2023-04-28T02:10:44;100146.44;;;14.62;100.00
64354;BME280;50681;53.334;-6.536;2023-04-28T02:13:10;100160.22;;;15.26;100.00
64354;BME280;50681;53.334;-6.536;2023-04-28T02:15:40;100157.59;;;15.08;100.00
64354;BME280;50681;53.334;-6.536;2023-04-28T02:18:05;100152.91;;;14.88;100.00
64354;BME280;50681;53.334;-6.536;2023-04-28T02:20:31;100163.78;;;15.39;100.00
64354;BME280;50681;53.334;-6.536;2023-04-28T02:22:56;100153.56;;;15.14;100.00
64354;BME280;50681;53.334;-6.536;2023-04-28T02:25:21;100164.31;;;15.32;100.00
64354;BME280;50681;53.334;-6.536;2023-04-28T02:27:47;100183.56;;;14.97;100.00
64354;BME280;50681;53.334;-6.536;2023-04-28T02:30:12;100171.38;;;14.73;100.00
64354;BME280;50681;53.334;-6.536;2023-04-28T02:32:38;100167.84;;;14.64;100.00
64354;BME280;50681;53.334;-6.536;2023-04-28T02:35:03;100162.75;;;15.01;100.00
64354;BME280;50681;53.334;-6.536;2023-04-28T02:37:29;100173.59;;;14.62;100.00
64354;BME280;50681;53.334;-6.536;2023-04-28T02:39:54;100188.16;;;15.05;100.00
64354;BME280;50681;53.334;-6.536;2023-04-28T02:42:20;100167.56;;;14.57;100.00
64354;BME280;50681;53.334;-6.536;2023-04-28T02:44:45;100171.38;;;15.03;100.00
64354;BME280;50681;53.334;-6.536;2023-04-28T02:47:12;100171.31;;;15.12;100.00
64354;BME280;50681;53.334;-6.536;2023-04-28T02:49:38;100173.63;;;15.01;100.00
64354;BME280;50681;53.334;-6.536;2023-04-28T02:52:04;100192.13;;;14.69;100.00
64354;BME280;50681;53.334;-6.536;2023-04-28T02:54:30;100187.34;;;14.66;100.00
64354;BME280;50681;53.334;-6.536;2023-04-28T02:56:57;100185.81;;;14.47;100.00
64354;BME280;50681;53.334;-6.536;2023-04-28T02:59:23;100187.66;;;14.73;100.00
64354;BME280;50681;53.334;-6.536;2023-04-28T03:01:49;100196.31;;;14.58;100.00
64354;BME280;50681;53.334;-6.536;2023-04-28T03:04:18;100199.16;;;15.09;100.00
64354;BME280;50681;53.334;-6.536;2023-04-28T03:06:43;100206.34;;;14.75;100.00
64354;BME280;50681;53.334;-6.536;2023-04-28T03:09:09;100202.06;;;14.56;100.00
64354;BME280;50681;53.334;-6.536;2023-04-28T03:11:35;100189.22;;;14.26;100.00
64354;BME280;50681;53.334;-6.536;2023-04-28T03:14:00;100202.91;;;14.48;100.00
64354;BME280;50681;53.334;-6.536;2023-04-28T03:16:26;100209.44;;;14.55;100.00
64354;BME280;50681;53.334;-6.536;2023-04-28T03:18:51;100210.22;;;14.56;100.00
64354;BME280;50681;53.334;-6.536;2023-04-28T03:21:17;100212.63;;;14.58;100.00
64354;BME280;50681;53.334;-6.536;2023-04-28T03:23:43;100208.50;;;14.51;100.00
64354;BME280;50681;53.334;-6.536;2023-04-28T03:26:08;100204.66;;;14.44;100.00
64354;BME280;50681;53.334;-6.536;2023-04-28T03:28:34;100193.84;;;14.35;100.00
64354;BME280;50681;53.334;-6.536;2023-04-28T03:31:05;100220.44;;;14.59;100.00
64354;BME280;50681;53.334;-6.536;2023-04-28T03:33:31;100224.78;;;14.51;100.00
64354;BME280;50681;53.334;-6.536;2023-04-28T03:35:56;100208.19;;;14.44;100.00
64354;BME280;50681;53.334;-6.536;2023-04-28T03:38:22;100209.78;;;14.45;100.00
64354;BME280;50681;53.334;-6.536;2023-04-28T03:40:47;100227.81;;;14.59;100.00
64354;BME280;50681;53.334;-6.536;2023-04-28T03:43:13;100222.41;;;15.27;100.00
64354;BME280;50681;53.334;-6.536;2023-04-28T03:45:39;100233.03;;;14.81;100.00
64354;BME280;50681;53.334;-6.536;2023-04-28T03:48:05;100235.94;;;14.76;100.00
64354;BME280;50681;53.334;-6.536;2023-04-28T03:50:31;100238.84;;;14.71;100.00
64354;BME280;50681;53.334;-6.536;2023-04-28T03:52:56;100232.75;;;14.74;100.00
64354;BME280;50681;53.334;-6.536;2023-04-28T03:55:22;100236.59;;;14.55;100.00
64354;BME280;50681;53.334;-6.536;2023-04-28T03:57:47;100241.63;;;15.22;100.00
64354;BME280;50681;53.334;-6.536;2023-04-28T04:00:13;100246.16;;;14.79;100.00
64354;BME280;50681;53.334;-6.536;2023-04-28T04:02:38;100241.84;;;14.69;100.00
64354;BME280;50681;53.334;-6.536;2023-04-28T04:05:04;100235.78;;;14.64;100.00
64354;BME280;50681;53.334;-6.536;2023-04-28T04:07:30;100237.22;;;14.70;100.00
64354;BME280;50681;53.334;-6.536;2023-04-28T04:09:55;100233.72;;;14.61;100.00
64354;BME280;50681;53.334;-6.536;2023-04-28T04:12:21;100247.81;;;14.45;100.00
64354;BME280;50681;53.334;-6.536;2023-04-28T04:14:46;100248.31;;;14.30;100.00
64354;BME280;50681;53.334;-6.536;2023-04-28T04:17:11;100238.88;;;14.27;100.00
64354;BME280;50681;53.334;-6.536;2023-04-28T04:19:37;100255.19;;;14.36;100.00
64354;BME280;50681;53.334;-6.536;2023-04-28T04:22:02;100242.69;;;14.52;100.00
64354;BME280;50681;53.334;-6.536;2023-04-28T04:24:27;100252.56;;;14.57;100.00
64354;BME280;50681;53.334;-6.536;2023-04-28T04:26:53;100234.06;;;14.41;100.00
64354;BME280;50681;53.334;-6.536;2023-04-28T04:29:18;100244.41;;;14.66;100.00
64354;BME280;50681;53.334;-6.536;2023-04-28T04:31:44;100250.06;;;14.43;100.00
64354;BME280;50681;53.334;-6.536;2023-04-28T04:34:10;100257.72;;;14.32;100.00
64354;BME280;50681;53.334;-6.536;2023-04-28T04:36:36;100252.97;;;14.94;100.00
64354;BME280;50681;53.334;-6.536;2023-04-28T04:39:01;100255.06;;;14.89;100.00
64354;BME280;50681;53.334;-6.536;2023-04-28T04:41:27;100259.66;;;14.32;100.00
64354;BME280;50681;53.334;-6.536;2023-04-28T04:43:52;100261.56;;;14.40;100.00
64354;BME280;50681;53.334;-6.536;2023-04-28T04:46:18;100254.78;;;15.20;100.00
64354;BME280;50681;53.334;-6.536;2023-04-28T04:48:43;100260.28;;;15.11;100.00
64354;BME280;50681;53.334;-6.536;2023-04-28T04:51:09;100263.56;;;15.26;100.00
64354;BME280;50681;53.334;-6.536;2023-04-28T04:53:35;100260.41;;;14.50;100.00
64354;BME280;50681;53.334;-6.536;2023-04-28T04:56:01;100253.19;;;14.72;100.00
64354;BME280;50681;53.334;-6.536;2023-04-28T04:58:26;100264.00;;;14.98;100.00
64354;BME280;50681;53.334;-6.536;2023-04-28T05:00:52;100252.28;;;14.41;100.00
64354;BME280;50681;53.334;-6.536;2023-04-28T05:03:17;100280.75;;;14.35;100.00
64354;BME280;50681;53.334;-6.536;2023-04-28T05:05:43;100269.84;;;14.44;100.00
64354;BME280;50681;53.334;-6.536;2023-04-28T05:08:12;100282.34;;;14.18;100.00
64354;BME280;50681;53.334;-6.536;2023-04-28T05:10:37;100285.06;;;14.18;100.00
64354;BME280;50681;53.334;-6.536;2023-04-28T05:13:03;100282.66;;;14.25;100.00
64354;BME280;50681;53.334;-6.536;2023-04-28T05:15:28;100280.84;;;14.74;100.00
64354;BME280;50681;53.334;-6.536;2023-04-28T05:17:55;100289.03;;;14.47;100.00
64354;BME280;50681;53.334;-6.536;2023-04-28T05:20:21;100281.38;;;14.40;100.00
64354;BME280;50681;53.334;-6.536;2023-04-28T05:22:47;100296.22;;;14.52;100.00
64354;BME280;50681;53.334;-6.536;2023-04-28T05:25:12;100291.91;;;14.42;100.00
64354;BME280;50681;53.334;-6.536;2023-04-28T05:27:38;100298.31;;;14.46;100.00
64354;BME280;50681;53.334;-6.536;2023-04-28T05:30:08;100295.72;;;14.59;100.00
64354;BME280;50681;53.334;-6.536;2023-04-28T05:32:36;100310.59;;;14.52;100.00
64354;BME280;50681;53.334;-6.536;2023-04-28T05:35:02;100306.59;;;14.59;100.00
64354;BME280;50681;53.334;-6.536;2023-04-28T05:37:27;100311.38;;;14.62;100.00
64354;BME280;50681;53.334;-6.536;2023-04-28T05:39:53;100305.47;;;14.51;100.00
64354;BME280;50681;53.334;-6.536;2023-04-28T05:42:18;100318.06;;;14.91;100.00
64354;BME280;50681;53.334;-6.536;2023-04-28T05:44:44;100313.66;;;14.42;100.00
64354;BME280;50681;53.334;-6.536;2023-04-28T05:47:10;100320.66;;;14.61;100.00
64354;BME280;50681;53.334;-6.536;2023-04-28T05:49:36;100318.25;;;14.59;100.00
64354;BME280;50681;53.334;-6.536;2023-04-28T05:52:01;100319.06;;;14.60;100.00
64354;BME280;50681;53.334;-6.536;2023-04-28T05:54:27;100328.66;;;15.22;100.00
64354;BME280;50681;53.334;-6.536;2023-04-28T05:56:52;100330.25;;;14.84;100.00
64354;BME280;50681;53.334;-6.536;2023-04-28T05:59:18;100331.97;;;14.98;100.00
64354;BME280;50681;53.334;-6.536;2023-04-28T06:01:43;100318.63;;;15.53;100.00
64354;BME280;50681;53.334;-6.536;2023-04-28T06:04:09;100334.91;;;15.62;100.00
64354;BME280;50681;53.334;-6.536;2023-04-28T06:06:34;100338.66;;;15.48;100.00
64354;BME280;50681;53.334;-6.536;2023-04-28T06:09:01;100329.72;;;15.99;100.00
64354;BME280;50681;53.334;-6.536;2023-04-28T06:11:27;100338.41;;;15.92;100.00
64354;BME280;50681;53.334;-6.536;2023-04-28T06:13:52;100338.13;;;15.85;100.00
64354;BME280;50681;53.334;-6.536;2023-04-28T06:16:17;100337.34;;;16.06;100.00
64354;BME280;50681;53.334;-6.536;2023-04-28T06:18:43;100349.09;;;15.37;100.00
64354;BME280;50681;53.334;-6.536;2023-04-28T06:21:09;100346.69;;;15.36;100.00
64354;BME280;50681;53.334;-6.536;2023-04-28T06:23:34;100346.69;;;15.75;100.00
64354;BME280;50681;53.334;-6.536;2023-04-28T06:26:00;100350.50;;;16.04;100.00
64354;BME280;50681;53.334;-6.536;2023-04-28T06:28:25;100364.19;;;16.16;100.00
64354;BME280;50681;53.334;-6.536;2023-04-28T06:30:51;100352.59;;;15.47;100.00
64354;BME280;50681;53.334;-6.536;2023-04-28T06:33:16;100354.13;;;16.16;100.00
64354;BME280;50681;53.334;-6.536;2023-04-28T06:35:42;100362.00;;;16.30;100.00
64354;BME280;50681;53.334;-6.536;2023-04-28T06:38:07;100367.59;;;16.34;100.00
64354;BME280;50681;53.334;-6.536;2023-04-28T06:40:33;100374.66;;;16.35;100.00
64354;BME280;50681;53.334;-6.536;2023-04-28T06:42:58;100381.75;;;16.27;100.00
64354;BME280;50681;53.334;-6.536;2023-04-28T06:45:24;100385.59;;;16.26;100.00
64354;BME280;50681;53.334;-6.536;2023-04-28T06:47:49;100376.97;;;16.24;100.00
64354;BME280;50681;53.334;-6.536;2023-04-28T06:50:15;100386.69;;;16.34;100.00
64354;BME280;50681;53.334;-6.536;2023-04-28T06:52:40;100395.91;;;16.21;100.00
64354;BME280;50681;53.334;-6.536;2023-04-28T06:55:07;100408.06;;;16.23;100.00
64354;BME280;50681;53.334;-6.536;2023-04-28T06:57:33;100403.66;;;15.41;100.00
64354;BME280;50681;53.334;-6.536;2023-04-28T06:59:59;100401.13;;;15.75;100.00
64354;BME280;50681;53.334;-6.536;2023-04-28T07:02:24;100401.75;;;15.33;100.00
64354;BME280;50681;53.334;-6.536;2023-04-28T07:04:50;100419.38;;;15.35;100.00
64354;BME280;50681;53.334;-6.536;2023-04-28T07:07:15;100406.59;;;15.27;100.00
64354;BME280;50681;53.334;-6.536;2023-04-28T07:09:41;100409.78;;;15.29;100.00
64354;BME280;50681;53.334;-6.536;2023-04-28T07:12:06;100424.63;;;15.40;100.00
64354;BME280;50681;53.334;-6.536;2023-04-28T07:14:32;100427.19;;;15.46;100.00
64354;BME280;50681;53.334;-6.536;2023-04-28T07:16:57;100424.22;;;16.28;100.00
64354;BME280;50681;53.334;-6.536;2023-04-28T07:19:23;100423.47;;;16.19;100.00
64354;BME280;50681;53.334;-6.536;2023-04-28T07:21:48;100422.78;;;15.62;100.00
64354;BME280;50681;53.334;-6.536;2023-04-28T07:24:14;100433.31;;;16.11;100.00
64354;BME280;50681;53.334;-6.536;2023-04-28T07:26:39;100432.97;;;15.83;100.00
64354;BME280;50681;53.334;-6.536;2023-04-28T07:29:05;100449.66;;;15.72;100.00
64354;BME280;50681;53.334;-6.536;2023-04-28T07:31:30;100444.00;;;16.16;100.00
64354;BME280;50681;53.334;-6.536;2023-04-28T07:33:59;100442.81;;;16.26;100.00
64354;BME280;50681;53.334;-6.536;2023-04-28T07:36:25;100444.09;;;15.99;100.00
64354;BME280;50681;53.334;-6.536;2023-04-28T07:38:51;100439.69;;;16.15;100.00
64354;BME280;50681;53.334;-6.536;2023-04-28T07:41:16;100455.19;;;16.45;100.00
64354;BME280;50681;53.334;-6.536;2023-04-28T07:43:43;100439.72;;;16.58;100.00
64354;BME280;50681;53.334;-6.536;2023-04-28T07:46:08;100450.53;;;16.67;100.00
64354;BME280;50681;53.334;-6.536;2023-04-28T07:48:34;100454.47;;;16.06;100.00
64354;BME280;50681;53.334;-6.536;2023-04-28T07:51:00;100461.00;;;16.13;100.00
64354;BME280;50681;53.334;-6.536;2023-04-28T07:53:25;100470.06;;;15.96;100.00
64354;BME280;50681;53.334;-6.536;2023-04-28T07:55:51;100471.28;;;16.08;100.00
64354;BME280;50681;53.334;-6.536;2023-04-28T07:58:16;100482.44;;;16.15;100.00
64354;BME280;50681;53.334;-6.536;2023-04-28T08:00:42;100488.66;;;16.24;100.00
64354;BME280;50681;53.334;-6.536;2023-04-28T08:03:07;100488.53;;;16.93;100.00
64354;BME280;50681;53.334;-6.536;2023-04-28T08:05:33;100480.81;;;16.53;100.00
64354;BME280;50681;53.334;-6.536;2023-04-28T08:07:58;100478.22;;;16.26;100.00
64354;BME280;50681;53.334;-6.536;2023-04-28T08:10:24;100490.72;;;16.27;100.00
64354;BME280;50681;53.334;-6.536;2023-04-28T08:12:51;100480.28;;;16.29;100.00
64354;BME280;50681;53.334;-6.536;2023-04-28T08:15:16;100486.47;;;16.39;100.00
64354;BME280;50681;53.334;-6.536;2023-04-28T08:17:42;100499.91;;;16.44;100.00
64354;BME280;50681;53.334;-6.536;2023-04-28T08:20:07;100501.16;;;16.98;100.00
64354;BME280;50681;53.334;-6.536;2023-04-28T08:22:33;100495.03;;;17.68;100.00
64354;BME280;50681;53.334;-6.536;2023-04-28T08:24:58;100508.94;;;17.29;100.00
64354;BME280;50681;53.334;-6.536;2023-04-28T08:27:24;100493.63;;;17.49;100.00
64354;BME280;50681;53.334;-6.536;2023-04-28T08:29:50;100497.22;;;17.75;100.00
64354;BME280;50681;53.334;-6.536;2023-04-28T08:32:16;100508.44;;;17.61;100.00
64354;BME280;50681;53.334;-6.536;2023-04-28T08:34:41;100500.41;;;17.77;100.00
64354;BME280;50681;53.334;-6.536;2023-04-28T08:37:07;100515.69;;;18.03;100.00
64354;BME280;50681;53.334;-6.536;2023-04-28T08:39:32;100515.16;;;17.63;100.00
64354;BME280;50681;53.334;-6.536;2023-04-28T08:42:02;100507.97;;;17.59;100.00
64354;BME280;50681;53.334;-6.536;2023-04-28T08:44:35;100518.47;;;17.69;100.00
64354;BME280;50681;53.334;-6.536;2023-04-28T08:47:02;100517.91;;;17.30;100.00
64354;BME280;50681;53.334;-6.536;2023-04-28T08:49:33;100522.41;;;17.47;100.00
64354;BME280;50681;53.334;-6.536;2023-04-28T08:52:00;100527.66;;;16.97;100.00
64354;BME280;50681;53.334;-6.536;2023-04-28T08:54:35;100520.50;;;17.60;100.00
64354;BME280;50681;53.334;-6.536;2023-04-28T08:57:02;100523.44;;;17.55;100.00
64354;BME280;50681;53.334;-6.536;2023-04-28T08:59:29;100524.28;;;17.34;100.00
64354;BME280;50681;53.334;-6.536;2023-04-28T09:01:55;100534.25;;;17.51;100.00
64354;BME280;50681;53.334;-6.536;2023-04-28T09:04:21;100535.97;;;17.68;100.00
64354;BME280;50681;53.334;-6.536;2023-04-28T09:06:46;100539.50;;;17.56;100.00
64354;BME280;50681;53.334;-6.536;2023-04-28T09:09:30;100546.00;;;17.09;100.00
64354;BME280;50681;53.334;-6.536;2023-04-28T09:12:00;100534.25;;;16.87;100.00
64354;BME280;50681;53.334;-6.536;2023-04-28T09:14:30;100547.25;;;17.33;100.00
64354;BME280;50681;53.334;-6.536;2023-04-28T09:16:57;100539.09;;;17.79;100.00
64354;BME280;50681;53.334;-6.536;2023-04-28T09:19:23;100549.41;;;18.07;100.00
64354;BME280;50681;53.334;-6.536;2023-04-28T09:21:53;100539.47;;;18.64;100.00
64354;BME280;50681;53.334;-6.536;2023-04-28T09:27:05;100547.31;;;18.66;100.00
64354;BME280;50681;53.334;-6.536;2023-04-28T09:29:36;100552.28;;;18.89;100.00
64354;BME280;50681;53.334;-6.536;2023-04-28T09:32:14;100555.47;;;18.78;100.00
64354;BME280;50681;53.334;-6.536;2023-04-28T09:34:49;100555.44;;;18.38;100.00
64354;BME280;50681;53.334;-6.536;2023-04-28T09:37:19;100559.50;;;18.06;100.00
64354;BME280;50681;53.334;-6.536;2023-04-28T09:39:47;100553.50;;;18.50;100.00
64354;BME280;50681;53.334;-6.536;2023-04-28T09:42:33;100558.44;;;18.86;100.00
64354;BME280;50681;53.334;-6.536;2023-04-28T09:45:00;100566.84;;;18.93;100.00
64354;BME280;50681;53.334;-6.536;2023-04-28T09:47:27;100562.88;;;17.91;100.00
64354;BME280;50681;53.334;-6.536;2023-04-28T09:49:58;100561.78;;;17.58;100.00
64354;BME280;50681;53.334;-6.536;2023-04-28T09:52:26;100573.19;;;18.44;100.00
64354;BME280;50681;53.334;-6.536;2023-04-28T09:54:53;100567.97;;;18.26;100.00
64354;BME280;50681;53.334;-6.536;2023-04-28T09:57:19;100573.66;;;18.46;100.00
64354;BME280;50681;53.334;-6.536;2023-04-28T09:59:48;100575.69;;;18.12;100.00
64354;BME280;50681;53.334;-6.536;2023-04-28T10:02:18;100582.75;;;18.38;100.00
64354;BME280;50681;53.334;-6.536;2023-04-28T10:04:45;100564.31;;;18.59;100.00
64354;BME280;50681;53.334;-6.536;2023-04-28T10:07:12;100575.31;;;18.88;100.00
64354;BME280;50681;53.334;-6.536;2023-04-28T10:09:39;100581.03;;;18.70;100.00
64354;BME280;50681;53.334;-6.536;2023-04-28T10:12:09;100582.53;;;18.68;100.00
64354;BME280;50681;53.334;-6.536;2023-04-28T10:14:35;100593.09;;;18.81;100.00
64354;BME280;50681;53.334;-6.536;2023-04-28T10:17:03;100593.00;;;18.41;100.00
64354;BME280;50681;53.334;-6.536;2023-04-28T10:19:30;100584.31;;;18.01;100.00
64354;BME280;50681;53.334;-6.536;2023-04-28T10:27:40;100614.94;;;17.73;100.00
64354;BME280;50681;53.334;-6.536;2023-04-28T10:30:16;100618.94;;;17.21;100.00
64354;BME280;50681;53.334;-6.536;2023-04-28T10:32:42;100611.84;;;17.62;100.00
64354;BME280;50681;53.334;-6.536;2023-04-28T10:38:06;100620.56;;;17.77;100.00
64354;BME280;50681;53.334;-6.536;2023-04-28T10:40:40;100620.09;;;18.21;100.00
64354;BME280;50681;53.334;-6.536;2023-04-28T10:43:08;100616.44;;;17.71;100.00
64354;BME280;50681;53.334;-6.536;2023-04-28T10:56:15;100634.47;;;18.80;100.00
64354;BME280;50681;53.334;-6.536;2023-04-28T10:58:43;100621.97;;;19.32;100.00
64354;BME280;50681;53.334;-6.536;2023-04-28T11:01:26;100639.19;;;19.61;100.00
64354;BME280;50681;53.334;-6.536;2023-04-28T11:04:04;100624.63;;;19.57;100.00
64354;BME280;50681;53.334;-6.536;2023-04-28T11:06:42;100637.91;;;19.43;100.00
64354;BME280;50681;53.334;-6.536;2023-04-28T11:12:05;100651.34;;;18.94;100.00
64354;BME280;50681;53.334;-6.536;2023-04-28T11:14:33;100632.44;;;18.77;100.00
64354;BME280;50681;53.334;-6.536;2023-04-28T11:22:02;100639.03;;;19.13;100.00
64354;BME280;50681;53.334;-6.536;2023-04-28T11:24:29;100652.69;;;19.54;100.00
64354;BME280;50681;53.334;-6.536;2023-04-28T11:26:56;100655.88;;;19.28;100.00
64354;BME280;50681;53.334;-6.536;2023-04-28T11:31:57;100659.88;;;18.80;100.00
64354;BME280;50681;53.334;-6.536;2023-04-28T11:34:24;100645.44;;;19.05;100.00
64354;BME280;50681;53.334;-6.536;2023-04-28T11:36:50;100649.75;;;18.93;100.00
64354;BME280;50681;53.334;-6.536;2023-04-28T11:39:16;100657.84;;;19.56;100.00
64354;BME280;50681;53.334;-6.536;2023-04-28T11:41:44;100646.56;;;19.45;100.00
64354;BME280;50681;53.334;-6.536;2023-04-28T11:44:10;100662.75;;;19.91;100.00
64354;BME280;50681;53.334;-6.536;2023-04-28T11:46:52;100664.13;;;20.29;100.00
64354;BME280;50681;53.334;-6.536;2023-04-28T11:49:22;100649.19;;;19.53;100.00
64354;BME280;50681;53.334;-6.536;2023-04-28T11:51:52;100665.47;;;20.35;100.00
64354;BME280;50681;53.334;-6.536;2023-04-28T11:54:26;100657.03;;;19.83;100.00
64354;BME280;50681;53.334;-6.536;2023-04-28T11:56:55;100667.31;;;19.87;100.00
64354;BME280;50681;53.334;-6.536;2023-04-28T11:59:31;100675.88;;;20.14;100.00
64354;BME280;50681;53.334;-6.536;2023-04-28T12:02:07;100684.63;;;19.62;100.00
64354;BME280;50681;53.334;-6.536;2023-04-28T12:04:42;100684.13;;;19.44;100.00
64354;BME280;50681;53.334;-6.536;2023-04-28T12:07:16;100681.19;;;19.65;100.00
64354;BME280;50681;53.334;-6.536;2023-04-28T12:09:43;100675.69;;;20.22;100.00
64354;BME280;50681;53.334;-6.536;2023-04-28T12:12:29;100675.63;;;20.19;100.00
64354;BME280;50681;53.334;-6.536;2023-04-28T12:14:59;100672.34;;;20.29;100.00
64354;BME280;50681;53.334;-6.536;2023-04-28T12:17:38;100682.44;;;20.57;100.00
64354;BME280;50681;53.334;-6.536;2023-04-28T12:20:07;100676.56;;;20.10;100.00
64354;BME280;50681;53.334;-6.536;2023-04-28T12:22:49;100694.28;;;20.29;100.00
64354;BME280;50681;53.334;-6.536;2023-04-28T12:25:17;100694.03;;;19.90;100.00
64354;BME280;50681;53.334;-6.536;2023-04-28T12:30:27;100695.81;;;19.04;100.00
64354;BME280;50681;53.334;-6.536;2023-04-28T12:32:53;100695.34;;;19.14;100.00
64354;BME280;50681;53.334;-6.536;2023-04-28T12:35:24;100693.31;;;19.11;100.00
64354;BME280;50681;53.334;-6.536;2023-04-28T12:37:51;100695.81;;;19.16;100.00
64354;BME280;50681;53.334;-6.536;2023-04-28T12:40:17;100708.81;;;19.07;100.00
64354;BME280;50681;53.334;-6.536;2023-04-28T12:42:43;100704.03;;;19.57;100.00
64354;BME280;50681;53.334;-6.536;2023-04-28T12:45:08;100695.38;;;19.55;100.00
64354;BME280;50681;53.334;-6.536;2023-04-28T12:47:34;100708.34;;;20.27;100.00
64354;BME280;50681;53.334;-6.536;2023-04-28T12:50:00;100710.25;;;20.11;100.00
64354;BME280;50681;53.334;-6.536;2023-04-28T12:52:26;100723.63;;;20.29;100.00
64354;BME280;50681;53.334;-6.536;2023-04-28T12:54:51;100727.75;;;20.51;100.00
64354;BME280;50681;53.334;-6.536;2023-04-28T12:57:18;100711.16;;;20.15;100.00
64354;BME280;50681;53.334;-6.536;2023-04-28T12:59:44;100725.97;;;20.42;100.00
64354;BME280;50681;53.334;-6.536;2023-04-28T13:02:12;100717.63;;;19.94;100.00
64354;BME280;50681;53.334;-6.536;2023-04-28T13:04:39;100727.50;;;20.11;100.00